createdAt,value
2023-02-08T00:01:46.139Z,-5.42
2023-02-08T00:04:15.499Z,-5.48
2023-02-08T00:06:45.788Z,-5.53
2023-02-08T00:09:15.377Z,-5.59
2023-02-08T00:11:44.667Z,-5.61
2023-02-08T00:14:14.044Z,-5.62
2023-02-08T00:16:43.273Z,-5.66
2023-02-08T00:19:14.250Z,-5.67
2023-02-08T00:21:43.663Z,-5.66
2023-02-08T00:24:13.746Z,-5.66
2023-02-08T00:26:43.325Z,-5.61
2023-02-08T00:29:12.591Z,-5.59
2023-02-08T00:31:41.647Z,-5.60
2023-02-08T00:34:11.092Z,-5.64
2023-02-08T00:36:42.948Z,-5.71
2023-02-08T00:39:13.018Z,-5.76
2023-02-08T00:41:44.386Z,-5.78
2023-02-08T00:44:14.619Z,-5.82
2023-02-08T00:46:44.336Z,-5.84
2023-02-08T00:49:13.662Z,-5.79
2023-02-08T00:51:43.701Z,-5.77
2023-02-08T00:54:15.511Z,-5.76
2023-02-08T00:56:44.489Z,-5.70
2023-02-08T00:59:13.811Z,-5.70
2023-02-08T01:01:44.684Z,-5.72
2023-02-08T01:04:13.765Z,-5.76
2023-02-08T01:06:44.212Z,-5.79
2023-02-08T01:09:14.147Z,-5.87
2023-02-08T01:11:45.219Z,-5.90
2023-02-08T01:14:14.560Z,-5.86
2023-02-08T01:16:43.936Z,-5.86
2023-02-08T01:19:12.887Z,-5.87
2023-02-08T01:21:42.299Z,-5.88
2023-02-08T01:24:11.383Z,-5.89
2023-02-08T01:26:40.823Z,-5.92
2023-02-08T01:29:13.596Z,-5.94
2023-02-08T01:31:43.560Z,-5.99
2023-02-08T01:34:12.992Z,-5.99
2023-02-08T01:36:43.499Z,-5.96
2023-02-08T01:39:12.431Z,-5.98
2023-02-08T01:41:44.081Z,-6.04
2023-02-08T01:44:18.865Z,-6.08
2023-02-08T01:46:51.198Z,-6.09
2023-02-08T01:49:26.792Z,-6.13
2023-02-08T01:52:03.757Z,-6.13
2023-02-08T01:54:38.202Z,-6.12
2023-02-08T01:57:07.429Z,-6.17
2023-02-08T01:59:41.431Z,-6.15
2023-02-08T02:02:13.042Z,-6.16
2023-02-08T02:04:43.052Z,-6.17
2023-02-08T02:07:11.794Z,-6.13
2023-02-08T02:09:52.262Z,-6.08
2023-02-08T02:12:22.293Z,-6.05
2023-02-08T02:14:52.711Z,-6.04
2023-02-08T02:17:22.176Z,-6.04
2023-02-08T02:20:20.346Z,-6.03
2023-02-08T02:23:28.043Z,-6.00
2023-02-08T02:26:39.561Z,-6.03
2023-02-08T02:29:56.609Z,-6.06
2023-02-08T02:32:42.758Z,-6.12
2023-02-08T02:35:34.977Z,-6.13
2023-02-08T02:38:12.808Z,-6.15
2023-02-08T02:41:23.138Z,-6.16
2023-02-08T02:43:55.934Z,-6.18
2023-02-08T02:46:28.830Z,-6.22
2023-02-08T02:49:20.878Z,-6.25
2023-02-08T02:52:12.192Z,-6.32
2023-02-08T02:54:51.685Z,-6.33
2023-02-08T02:57:26.814Z,-6.37
2023-02-08T02:59:57.794Z,-6.48
2023-02-08T03:02:27.614Z,-6.53
2023-02-08T03:04:57.855Z,-6.51
2023-02-08T03:07:35.451Z,-6.47
2023-02-08T03:10:13.746Z,-6.50
2023-02-08T03:13:13.436Z,-6.59
2023-02-08T03:16:18.590Z,-6.66
2023-02-08T03:19:10.657Z,-6.63
2023-02-08T03:21:50.990Z,-6.64
2023-02-08T03:24:43.614Z,-6.61
2023-02-08T03:27:37.570Z,-6.54
2023-02-08T03:30:14.895Z,-6.54
2023-02-08T03:33:19.100Z,-6.64
2023-02-08T03:35:57.134Z,-6.69
2023-02-08T03:38:34.300Z,-6.68
2023-02-08T03:41:04.473Z,-6.67
2023-02-08T03:43:55.217Z,-6.63
2023-02-08T03:46:34.899Z,-6.64
2023-02-08T03:49:09.435Z,-6.64
2023-02-08T03:51:41.582Z,-6.67
2023-02-08T03:54:21.052Z,-6.70
2023-02-08T03:57:09.721Z,-6.76
2023-02-08T03:59:42.420Z,-6.76
2023-02-08T04:02:14.465Z,-6.76
2023-02-08T04:04:46.622Z,-6.84
2023-02-08T04:07:17.176Z,-6.87
2023-02-08T04:09:45.983Z,-6.85
2023-02-08T04:12:14.913Z,-6.86
2023-02-08T04:14:43.886Z,-6.86
2023-02-08T04:17:14.673Z,-6.84
2023-02-08T04:19:44.238Z,-6.80
2023-02-08T04:22:13.052Z,-6.81
2023-02-08T04:24:43.115Z,-6.79
2023-02-08T04:27:12.780Z,-6.79
2023-02-08T04:29:42.157Z,-6.75
2023-02-08T04:32:11.642Z,-6.76
2023-02-08T04:34:41.119Z,-6.77
2023-02-08T04:37:11.667Z,-6.76
2023-02-08T04:39:40.632Z,-6.77
2023-02-08T04:42:09.213Z,-6.80
2023-02-08T04:44:39.017Z,-6.80
2023-02-08T04:47:07.923Z,-6.80
2023-02-08T04:49:36.973Z,-6.86
2023-02-08T04:52:06.037Z,-6.95
2023-02-08T04:54:35.665Z,-6.97
2023-02-08T04:57:04.702Z,-6.92
2023-02-08T04:59:34.402Z,-6.89
2023-02-08T05:02:04.209Z,-6.87
2023-02-08T05:04:34.021Z,-6.89
2023-02-08T05:07:05.833Z,-6.86
2023-02-08T05:09:34.799Z,-6.85
2023-02-08T05:12:03.650Z,-6.87
2023-02-08T05:14:33.224Z,-6.86
2023-02-08T05:17:02.207Z,-6.86
2023-02-08T05:19:31.473Z,-6.87
2023-02-08T05:22:01.289Z,-6.94
2023-02-08T05:24:34.333Z,-6.99
2023-02-08T05:27:03.709Z,-7.02
2023-02-08T05:29:32.611Z,-7.01
2023-02-08T05:32:01.615Z,-7.00
2023-02-08T05:34:31.343Z,-7.05
2023-02-08T05:37:00.898Z,-7.10
2023-02-08T05:39:30.352Z,-7.10
2023-02-08T05:41:59.062Z,-7.12
2023-02-08T05:44:28.099Z,-7.11
2023-02-08T05:46:56.870Z,-7.08
2023-02-08T05:49:26.907Z,-7.11
2023-02-08T05:51:55.707Z,-7.12
2023-02-08T05:54:24.858Z,-7.10
2023-02-08T05:56:53.819Z,-7.11
2023-02-08T05:59:22.667Z,-7.09
2023-02-08T06:01:51.583Z,-7.07
2023-02-08T06:04:20.374Z,-7.05
2023-02-08T06:06:50.927Z,-7.10
2023-02-08T06:09:21.545Z,-7.09
2023-02-08T06:11:51.621Z,-7.07
2023-02-08T06:14:21.335Z,-7.12
2023-02-08T06:16:50.399Z,-7.16
2023-02-08T06:19:20.568Z,-7.19
2023-02-08T06:21:49.347Z,-7.17
2023-02-08T06:24:18.647Z,-7.11
2023-02-08T06:26:49.062Z,-7.05
2023-02-08T06:29:19.836Z,-6.99
2023-02-08T06:31:49.014Z,-6.98
2023-02-08T06:34:17.631Z,-7.04
2023-02-08T06:36:46.275Z,-7.06
2023-02-08T06:39:15.229Z,-7.07
2023-02-08T06:41:44.216Z,-7.06
2023-02-08T06:44:13.156Z,-7.05
2023-02-08T06:46:43.737Z,-7.01
2023-02-08T06:49:12.422Z,-6.99
2023-02-08T06:51:42.537Z,-6.97
2023-02-08T06:54:11.288Z,-7.01
2023-02-08T06:56:42.535Z,-7.06
2023-02-08T06:59:13.059Z,-7.05
2023-02-08T07:01:42.476Z,-7.04
2023-02-08T10:07:51.586Z,-3.40
2023-02-08T10:10:47.706Z,-3.35
2023-02-08T10:13:41.407Z,-3.35
2023-02-08T10:16:32.033Z,-3.29
2023-02-08T10:19:38.080Z,-3.24
2023-02-08T10:22:32.283Z,-3.14
2023-02-08T10:25:32.316Z,-3.11
2023-02-08T10:28:34.370Z,-3.08
2023-02-08T10:31:11.906Z,-3.01
2023-02-08T10:34:02.421Z,-2.94
2023-02-08T10:36:38.943Z,-2.90
2023-02-08T10:39:27.508Z,-2.91
2023-02-08T10:42:03.409Z,-2.88
2023-02-08T10:44:58.713Z,-2.81
2023-02-08T10:47:42.742Z,-2.76
2023-02-08T10:50:38.048Z,-2.72
2023-02-08T10:53:09.308Z,-2.68
2023-02-08T10:55:47.081Z,-2.64
2023-02-08T10:58:20.111Z,-2.61
2023-02-08T11:00:55.057Z,-2.63
2023-02-08T11:03:31.399Z,-2.63
2023-02-08T11:05:58.637Z,-2.63
2023-02-08T11:08:30.264Z,-2.59
2023-02-08T11:11:11.972Z,-2.56
2023-02-08T11:13:50.923Z,-2.54
2023-02-08T11:16:31.908Z,-2.50
2023-02-08T11:19:07.410Z,-2.49
2023-02-08T11:21:40.586Z,-2.43
2023-02-08T11:24:30.256Z,-2.39
2023-02-08T11:27:02.682Z,-2.38
2023-02-08T11:29:32.538Z,-2.33
2023-02-08T11:32:06.471Z,-2.31
2023-02-08T11:34:43.752Z,-2.27
2023-02-08T11:37:31.861Z,-2.24
2023-02-08T11:40:07.060Z,-2.26
2023-02-08T11:42:40.697Z,-2.27
2023-02-08T11:45:20.915Z,-2.26
2023-02-08T11:47:49.667Z,-2.26
2023-02-08T11:50:27.107Z,-2.25
2023-02-08T11:52:59.405Z,-2.25
2023-02-08T11:55:30.946Z,-2.27
2023-02-08T11:58:25.717Z,-2.28
2023-02-08T12:01:06.800Z,-2.31
2023-02-08T12:03:40.416Z,-2.33
2023-02-08T12:06:38.544Z,-2.30
2023-02-08T12:09:23.142Z,-2.27
2023-02-08T12:12:03.602Z,-2.27
2023-02-08T12:15:09.181Z,-2.26
2023-02-08T12:18:14.671Z,-2.20
2023-02-08T12:20:47.651Z,-2.13
2023-02-08T12:23:32.432Z,-2.06
2023-02-08T12:26:25.657Z,-2.02
2023-02-08T12:29:18.358Z,-1.99
2023-02-08T12:32:14.078Z,-1.96
2023-02-08T12:35:03.997Z,-1.93
2023-02-08T12:38:11.199Z,-1.94
2023-02-08T12:40:55.173Z,-1.96
2023-02-08T12:43:32.897Z,-1.96
2023-02-08T12:46:29.593Z,-1.93
2023-02-08T12:49:45.016Z,-1.92
2023-02-08T12:52:29.264Z,-1.86
2023-02-08T12:55:03.894Z,-1.82
2023-02-08T12:57:33.043Z,-1.80
2023-02-08T13:00:10.802Z,-1.79
2023-02-08T13:02:49.115Z,-1.72
2023-02-08T13:05:20.372Z,-1.65
2023-02-08T13:07:51.462Z,-1.65
2023-02-08T13:10:31.683Z,-1.66
2023-02-08T13:13:23.280Z,-1.70
2023-02-08T13:16:01.164Z,-1.72
2023-02-08T13:18:35.475Z,-1.74
2023-02-08T13:21:08.361Z,-1.77
2023-02-08T13:23:52.366Z,-1.81
2023-02-08T13:26:26.399Z,-1.80
2023-02-08T13:28:58.380Z,-1.82
2023-02-08T13:31:35.750Z,-1.81
2023-02-08T13:34:29.529Z,-1.82
2023-02-08T13:37:01.809Z,-1.85
2023-02-08T13:39:40.099Z,-1.86
2023-02-08T13:42:22.387Z,-1.86
2023-02-08T13:44:55.214Z,-1.85
2023-02-08T13:47:41.261Z,-1.82
2023-02-08T13:50:38.184Z,-1.81
2023-02-08T13:53:07.515Z,-1.80
2023-02-08T13:55:56.321Z,-1.81
2023-02-08T13:58:49.996Z,-1.82
2023-02-08T14:01:24.448Z,-1.83
2023-02-08T14:04:21.962Z,-1.83
2023-02-08T14:07:29.021Z,-1.84
2023-02-08T14:10:30.444Z,-1.84
2023-02-08T14:13:24.883Z,-1.84
2023-02-08T14:16:38.446Z,-1.87
2023-02-08T14:19:24.190Z,-1.86
2023-02-08T14:22:16.420Z,-1.84
2023-02-08T14:24:52.337Z,-1.85
2023-02-08T14:27:30.021Z,-1.88
2023-02-08T14:30:05.016Z,-1.90
2023-02-08T14:32:38.231Z,-1.90
2023-02-08T14:35:25.477Z,-1.91
2023-02-08T14:38:23.007Z,-1.93
2023-02-08T14:40:54.851Z,-1.97
2023-02-08T14:43:40.070Z,-2.01
2023-02-08T14:46:42.981Z,-2.01
2023-02-08T14:49:18.152Z,-2.02
2023-02-08T14:52:00.721Z,-2.01
2023-02-08T14:54:43.407Z,-2.01
2023-02-08T14:57:34.730Z,-2.03
2023-02-08T15:00:12.656Z,-2.04
2023-02-08T15:02:43.555Z,-2.05
2023-02-08T15:05:25.317Z,-2.05
2023-02-08T15:08:00.573Z,-2.06
2023-02-08T15:10:30.080Z,-2.08
2023-02-08T15:13:04.002Z,-2.05
2023-02-08T15:15:41.537Z,-2.07
2023-02-08T15:18:19.790Z,-2.12
2023-02-08T15:21:06.410Z,-2.17
2023-02-08T15:23:36.424Z,-2.20
2023-02-08T15:26:08.911Z,-2.22
2023-02-08T15:28:37.895Z,-2.23
2023-02-08T15:31:09.946Z,-2.27
2023-02-08T15:33:41.456Z,-2.28
2023-02-08T15:36:33.002Z,-2.29
2023-02-08T15:39:06.542Z,-2.31
2023-02-08T15:41:35.501Z,-2.34
2023-02-08T15:44:19.148Z,-2.36
2023-02-08T15:46:48.487Z,-2.42
2023-02-08T15:49:28.985Z,-2.48
2023-02-08T15:51:57.652Z,-2.52
2023-02-08T15:54:26.417Z,-2.56
2023-02-08T15:57:08.524Z,-2.62
2023-02-08T15:59:39.589Z,-2.67
2023-02-08T16:02:32.321Z,-2.70
2023-02-08T16:05:02.514Z,-2.71
